Airport View

Enter AWOS ICAO identifier for current METAR.

ex. KFNL

KUES 080450Z AUTO 00000KT 10SM SCT007 19/19 A2997 RMK AO2

8 Jul 2020 04:52

Frequency: 118.875

Phone: 262-521-5226

Other Area AWOS: KMWC - K57C - KMKE - KBUU

TAF AMD KUES 080230Z 0803/0824 10005KT P6SM -RA SCT080 BKN100 FM080315 VRB04KT 6SM BR SCT080 BKN100 FM080700 00000KT 4SM BR FEW200 FM081400 18003KT P6SM FEW200